Terminal Aerodrome Forecast
Issued by NWS

Home | Current Version | Previous Version | Text Only | Print | Product List | Glossary On
Versions: 1 2 3 4 5 6 7 8 9 10 11 12 13 14 15
000
FTUS43 KSGF 261100
TAFJLN
TAF
KJLN 261120Z 2612/2712 19014G22KT P6SM BKN200 WS020/22050KT
     FM261400 18012KT P6SM BKN020
     FM262200 17012KT P6SM -DZ BKN010 OVC020
     FM270000 17010KT 4SM -RADZ BR OVC006
     FM270200 20010KT 2SM -RADZ BR OVC004
     FM270800 29010KT 2SM -DZ BR OVC007=

USA.gov is the U.S. government's official web portal to all federal, state and local government web resources and services.